Time;durP1;ratioP1;P1;durP2;ratioP2;P2;SDS_P1;SDS_P2;PMS_P1;PMS_P2;Temp;Humidity;BMP_temperature;BMP_pressure;BME280_temperature;BME280_humidity;BME280_pressure;Samples;Min_cycle;Max_cycle;Signal;HPM_P1;HPM_P2
2022/12/06 00:01:43;;;;;;;7.60;2.80;;;3.00;99.90;;;;;;5024272;28;20421;-67
2022/12/06 00:04:12;;;;;;;5.97;2.40;;;3.00;99.90;;;;;;5015370;28;20428;-67
2022/12/06 00:06:43;;;;;;;3.63;2.20;;;3.00;99.90;;;;;;5012019;28;20465;-67
2022/12/06 00:09:16;;;;;;;9.23;3.17;;;3.00;99.90;;;;;;5025984;28;20527;-67
2022/12/06 00:11:42;;;;;;;4.00;2.40;;;2.90;99.90;;;;;;5018518;28;20776;-67
2022/12/06 00:14:07;;;;;;;7.20;2.80;;;2.80;99.90;;;;;;5015628;28;20428;-67
2022/12/06 00:16:34;;;;;;;4.70;2.90;;;2.80;99.90;;;;;;5003361;28;20187;-67
2022/12/06 00:19:00;;;;;;;3.87;2.50;;;2.80;99.90;;;;;;5018886;28;20633;-67
2022/12/06 00:21:31;;;;;;;5.60;2.40;;;2.80;99.90;;;;;;5018331;28;20425;-67
2022/12/06 00:24:00;;;;;;;5.00;2.73;;;2.80;99.90;;;;;;5021173;28;20425;-67
2022/12/06 00:26:27;;;;;;;5.77;2.70;;;2.80;99.90;;;;;;5017247;28;21132;-67
2022/12/06 00:28:56;;;;;;;9.20;3.50;;;2.70;99.90;;;;;;5016340;28;20492;-67
2022/12/06 00:31:24;;;;;;;7.73;2.20;;;2.70;99.90;;;;;;5018050;28;20508;-67
2022/12/06 00:33:50;;;;;;;5.03;2.43;;;2.70;99.90;;;;;;5022101;28;20520;-67
2022/12/06 00:36:21;;;;;;;4.20;2.70;;;2.70;99.90;;;;;;5019038;28;20492;-67
2022/12/06 00:38:47;;;;;;;6.63;3.17;;;2.70;99.90;;;;;;5018417;28;20806;-67
2022/12/06 00:41:19;;;;;;;7.40;3.50;;;2.70;99.90;;;;;;5016035;28;20449;-67
2022/12/06 00:43:45;;;;;;;4.17;2.50;;;2.70;99.90;;;;;;5020285;28;20421;-67
2022/12/06 00:46:22;;;;;;;3.80;2.27;;;2.60;99.90;;;;;;5016247;28;20465;-67
2022/12/06 00:48:48;;;;;;;6.67;2.93;;;2.60;99.90;;;;;;5018004;28;20742;-67
2022/12/06 00:51:16;;;;;;;3.80;2.83;;;2.60;99.90;;;;;;5023127;28;20424;-67
2022/12/06 00:53:42;;;;;;;4.23;2.23;;;2.60;99.90;;;;;;5015625;28;20424;-67
2022/12/06 00:56:08;;;;;;;4.33;2.60;;;2.60;99.90;;;;;;5023824;28;20457;-67
2022/12/06 00:58:34;;;;;;;5.97;2.60;;;2.60;99.90;;;;;;5021428;28;20465;-67
2022/12/06 01:01:14;;;;;;;6.33;2.73;;;2.60;99.90;;;;;;5017891;28;20410;-67
2022/12/06 01:03:40;;;;;;;5.43;2.97;;;2.60;99.90;;;;;;5009550;28;20262;-67
2022/12/06 01:06:08;;;;;;;10.77;3.23;;;2.60;99.90;;;;;;5015521;28;20465;-67
2022/12/06 01:08:35;;;;;;;4.90;2.90;;;2.60;99.90;;;;;;5017922;28;20413;-67
2022/12/06 01:11:01;;;;;;;4.43;2.63;;;2.60;99.90;;;;;;5014746;28;20432;-67
2022/12/06 01:13:27;;;;;;;8.47;2.97;;;2.50;99.90;;;;;;5016592;28;20894;-67
2022/12/06 01:15:53;;;;;;;6.00;3.00;;;2.50;99.90;;;;;;5018696;28;20449;-67
2022/12/06 01:18:20;;;;;;;6.30;2.70;;;2.50;99.90;;;;;;5020038;28;20450;-67
2022/12/06 01:20:45;;;;;;;6.47;3.13;;;2.40;99.90;;;;;;5009461;28;20616;-67
2022/12/06 01:23:12;;;;;;;13.60;3.13;;;2.40;99.90;;;;;;5020660;28;20439;-67
2022/12/06 01:25:37;;;;;;;6.20;3.07;;;2.30;99.90;;;;;;5021275;28;20213;-67
2022/12/06 01:28:03;;;;;;;6.33;2.73;;;2.30;99.90;;;;;;5014175;28;20470;-67
2022/12/06 01:30:29;;;;;;;6.53;3.17;;;2.20;99.90;;;;;;5021144;28;20615;-67
2022/12/06 01:32:55;;;;;;;7.20;2.97;;;2.20;99.90;;;;;;5021192;28;20225;-67
2022/12/06 01:35:20;;;;;;;5.83;3.40;;;2.20;99.90;;;;;;5019908;28;20538;-67
2022/12/06 01:37:46;;;;;;;6.33;3.10;;;2.20;99.90;;;;;;5019135;28;20210;-67
2022/12/06 01:40:12;;;;;;;4.07;2.53;;;2.20;99.90;;;;;;5014051;28;20183;-67
2022/12/06 01:42:38;;;;;;;5.67;2.47;;;2.20;99.90;;;;;;5018739;28;20190;-67
2022/12/06 01:45:04;;;;;;;10.63;3.60;;;2.30;99.90;;;;;;5015330;28;20458;-67
2022/12/06 01:47:33;;;;;;;5.50;3.40;;;2.30;99.90;;;;;;5022205;28;20174;-67
2022/12/06 01:50:04;;;;;;;4.23;2.57;;;2.30;99.90;;;;;;5020934;28;20421;-67
2022/12/06 01:52:41;;;;;;;2.73;2.00;;;2.30;99.90;;;;;;5014834;28;20445;-67
2022/12/06 01:55:09;;;;;;;5.93;2.93;;;2.30;99.90;;;;;;5015288;28;20804;-67
2022/12/06 01:57:35;;;;;;;4.40;2.77;;;2.40;99.90;;;;;;5027750;28;20416;-67
2022/12/06 02:00:03;;;;;;;5.47;3.40;;;2.40;99.90;;;;;;5023034;28;20414;-67
2022/12/06 02:02:28;;;;;;;6.17;2.93;;;2.40;99.90;;;;;;5019973;28;20175;-67
2022/12/06 02:04:55;;;;;;;3.40;2.40;;;2.50;99.90;;;;;;5013506;28;20507;-68
2022/12/06 02:07:21;;;;;;;5.40;3.13;;;2.40;99.90;;;;;;5026390;28;20206;-68
2022/12/06 02:09:50;;;;;;;8.30;3.60;;;2.50;99.90;;;;;;5020551;28;20418;-68
2022/12/06 02:12:16;;;;;;;7.50;3.50;;;2.40;99.90;;;;;;5025174;28;20413;-68
2022/12/06 02:14:44;;;;;;;5.20;2.77;;;2.50;99.90;;;;;;5018136;28;20876;-68
2022/12/06 02:17:36;;;;;;;10.90;2.27;;;2.50;99.90;;;;;;5023820;28;20632;-68
2022/12/06 02:20:23;;;;;;;7.30;3.20;;;2.50;99.90;;;;;;5021212;28;20409;-68
2022/12/06 02:23:22;;;;;;;5.37;2.90;;;2.60;99.90;;;;;;5020025;28;20405;-68
2022/12/06 02:26:03;;;;;;;4.10;2.80;;;2.60;99.90;;;;;;5016079;28;20472;-68
2022/12/06 02:29:06;;;;;;;5.63;2.70;;;2.60;99.90;;;;;;5015930;28;20431;-68
2022/12/06 02:32:04;;;;;;;4.10;2.57;;;2.60;99.90;;;;;;5020750;28;20463;-67
2022/12/06 02:35:03;;;;;;;6.17;2.70;;;2.60;99.90;;;;;;5020590;28;20480;-67
2022/12/06 02:37:39;;;;;;;4.70;2.20;;;2.60;99.90;;;;;;5018388;28;20441;-67
2022/12/06 02:40:15;;;;;;;6.60;2.53;;;2.60;99.90;;;;;;5018298;28;20436;-68
2022/12/06 02:42:48;;;;;;;6.70;3.70;;;2.60;99.90;;;;;;5020094;28;20980;-68
2022/12/06 02:45:18;;;;;;;5.13;2.70;;;2.60;99.90;;;;;;5020274;28;20461;-67
2022/12/06 02:47:45;;;;;;;3.50;2.17;;;2.60;99.90;;;;;;5011893;28;20422;-68
2022/12/06 02:50:16;;;;;;;4.77;1.93;;;2.60;99.90;;;;;;5020560;28;20560;-68
2022/12/06 02:52:45;;;;;;;4.80;2.40;;;2.60;99.90;;;;;;5017956;28;20426;-68
2022/12/06 02:55:12;;;;;;;5.40;2.20;;;2.60;99.90;;;;;;5004112;28;20886;-68
2022/12/06 02:57:42;;;;;;;5.40;2.80;;;2.60;99.90;;;;;;5025623;28;20418;-68
2022/12/06 03:00:32;;;;;;;3.80;2.70;;;2.60;99.90;;;;;;5017814;28;20417;-69
2022/12/06 03:03:10;;;;;;;4.27;2.60;;;2.60;99.90;;;;;;5018219;28;20414;-69
2022/12/06 03:05:50;;;;;;;5.80;3.20;;;2.60;99.90;;;;;;5013377;28;20464;-68
2022/12/06 03:08:28;;;;;;;5.63;3.10;;;2.60;99.90;;;;;;5021485;28;20568;-68
2022/12/06 03:10:59;;;;;;;5.03;2.40;;;2.60;99.90;;;;;;5008873;28;20783;-68
2022/12/06 03:13:37;;;;;;;4.43;2.30;;;2.60;99.90;;;;;;5009426;28;21276;-68
2022/12/06 03:16:19;;;;;;;4.40;2.50;;;2.60;99.90;;;;;;5021237;28;20973;-68
2022/12/06 03:19:04;;;;;;;3.03;2.20;;;2.60;99.90;;;;;;5012216;28;20468;-68
2022/12/06 03:21:32;;;;;;;8.30;2.63;;;2.70;99.90;;;;;;5016976;28;20413;-68
2022/12/06 03:23:58;;;;;;;3.97;2.80;;;2.70;99.90;;;;;;5022192;28;20413;-68
2022/12/06 03:26:28;;;;;;;3.80;2.07;;;2.70;99.90;;;;;;5021113;28;20510;-68
2022/12/06 03:28:56;;;;;;;5.67;2.73;;;2.70;99.90;;;;;;5020379;28;20438;-68
2022/12/06 03:31:24;;;;;;;5.97;3.40;;;2.70;99.90;;;;;;5024497;28;20412;-68
2022/12/06 03:33:55;;;;;;;4.60;3.00;;;2.70;99.90;;;;;;5021572;28;20737;-69
2022/12/06 03:36:23;;;;;;;6.37;3.00;;;2.60;99.90;;;;;;5023640;28;20836;-69
2022/12/06 03:39:03;;;;;;;6.00;2.80;;;2.60;99.90;;;;;;5021092;28;21045;-69
2022/12/06 03:41:39;;;;;;;3.97;2.63;;;2.60;99.90;;;;;;5019372;28;20712;-69
2022/12/06 03:44:05;;;;;;;8.37;3.77;;;2.60;99.90;;;;;;5015856;28;20618;-69
2022/12/06 03:46:35;;;;;;;5.57;2.50;;;2.60;99.90;;;;;;5017028;28;20487;-69
2022/12/06 03:49:06;;;;;;;4.00;2.13;;;2.50;99.90;;;;;;5014346;28;20613;-69
2022/12/06 03:51:35;;;;;;;7.27;2.17;;;2.50;99.90;;;;;;5025244;28;20424;-69
2022/12/06 03:54:04;;;;;;;5.07;2.23;;;2.40;99.90;;;;;;5016808;28;20422;-69
2022/12/06 03:56:31;;;;;;;3.53;2.37;;;2.40;99.90;;;;;;5023122;28;20441;-69
2022/12/06 03:58:57;;;;;;;4.53;2.40;;;2.40;99.90;;;;;;5020236;28;20907;-69
2022/12/06 04:01:22;;;;;;;7.00;2.70;;;2.40;99.90;;;;;;5021401;28;20416;-69
2022/12/06 04:03:48;;;;;;;3.20;2.37;;;2.30;99.90;;;;;;5021177;28;20297;-69
2022/12/06 04:06:14;;;;;;;4.97;2.27;;;2.30;99.90;;;;;;5021701;28;20693;-69
2022/12/06 04:08:39;;;;;;;5.33;2.67;;;2.30;99.90;;;;;;5020928;28;20179;-69
2022/12/06 04:11:06;;;;;;;5.47;2.27;;;2.30;99.90;;;;;;5015413;28;20194;-70
2022/12/06 04:13:33;;;;;;;3.57;2.37;;;2.20;99.90;;;;;;5011349;28;20226;-69
2022/12/06 04:16:00;;;;;;;6.83;2.60;;;2.20;99.90;;;;;;5020825;28;20448;-69
2022/12/06 04:18:26;;;;;;;4.23;2.07;;;2.10;99.90;;;;;;5013895;28;20936;-69
2022/12/06 04:23:46;;;;;;;7.03;3.57;;;2.00;99.90;;;;;;5011138;28;20487;-69
2022/12/06 04:26:15;;;;;;;6.47;2.40;;;2.00;99.90;;;;;;5011837;28;20476;-69
2022/12/06 04:39:38;;;;;;;7.60;3.00;;;2.10;99.90;;;;;;5004884;28;20439;-70
2022/12/06 04:44:48;;;;;;;5.50;2.70;;;2.20;99.90;;;;;;5012503;28;20837;-69
2022/12/06 04:47:14;;;;;;;6.83;3.27;;;2.10;99.90;;;;;;5016266;28;20485;-69
2022/12/06 04:49:40;;;;;;;3.77;2.60;;;2.20;99.90;;;;;;5023134;28;20228;-69
2022/12/06 04:52:08;;;;;;;5.70;3.10;;;2.20;99.90;;;;;;5015551;28;20434;-69
2022/12/06 04:54:34;;;;;;;4.30;1.97;;;2.20;99.90;;;;;;5016932;28;20615;-69
2022/12/06 04:57:00;;;;;;;3.50;2.63;;;2.30;99.90;;;;;;5018264;28;20422;-69
2022/12/06 04:59:27;;;;;;;7.13;2.83;;;2.30;99.90;;;;;;5022756;28;20421;-69
2022/12/06 05:01:53;;;;;;;6.63;3.30;;;2.30;99.90;;;;;;5017816;28;20514;-69
2022/12/06 05:04:19;;;;;;;6.70;3.73;;;2.30;99.90;;;;;;5022460;28;20418;-69
2022/12/06 05:06:45;;;;;;;6.13;3.30;;;2.30;99.90;;;;;;5019314;28;20488;-68
2022/12/06 05:09:11;;;;;;;4.73;2.93;;;2.30;99.90;;;;;;5020590;28;20475;-68
2022/12/06 05:11:36;;;;;;;17.03;2.80;;;2.20;99.90;;;;;;5015297;28;20278;-69
2022/12/06 05:14:02;;;;;;;5.63;2.67;;;2.30;99.90;;;;;;5011345;28;20541;-69
2022/12/06 05:16:28;;;;;;;5.73;2.43;;;2.30;99.90;;;;;;5022626;28;20186;-69
2022/12/06 05:18:54;;;;;;;4.13;2.73;;;2.30;99.90;;;;;;5017729;28;20206;-69
2022/12/06 05:21:21;;;;;;;6.97;2.83;;;2.20;99.90;;;;;;5017850;28;20194;-69
2022/12/06 05:23:47;;;;;;;4.90;2.90;;;2.30;99.90;;;;;;5023724;28;20229;-69
2022/12/06 05:26:16;;;;;;;7.30;3.33;;;2.30;99.90;;;;;;5017457;28;20560;-69
2022/12/06 05:28:43;;;;;;;5.50;2.60;;;2.20;99.90;;;;;;5014890;28;20418;-69
2022/12/06 05:31:09;;;;;;;7.67;2.43;;;2.30;99.90;;;;;;5023352;28;20880;-68
2022/12/06 05:33:35;;;;;;;4.87;2.63;;;2.30;99.90;;;;;;5021542;28;20421;-69
2022/12/06 05:36:21;;;;;;;5.87;2.93;;;2.30;99.90;;;;;;5013894;28;20237;-69
2022/12/06 05:38:47;;;;;;;6.13;2.63;;;2.30;99.90;;;;;;5013925;28;20483;-69
2022/12/06 05:41:14;;;;;;;5.50;2.90;;;2.20;99.90;;;;;;5018376;28;20533;-69
2022/12/06 05:43:40;;;;;;;6.47;2.73;;;2.20;99.90;;;;;;5014501;28;20520;-69
2022/12/06 05:46:06;;;;;;;7.20;3.20;;;2.30;99.90;;;;;;5014558;28;20225;-69
2022/12/06 05:48:31;;;;;;;6.17;3.77;;;2.30;99.90;;;;;;5019168;28;20483;-69
2022/12/06 05:50:57;;;;;;;5.73;3.00;;;2.30;99.90;;;;;;5017574;28;20548;-69
2022/12/06 05:53:23;;;;;;;5.07;2.70;;;2.30;99.90;;;;;;5015115;28;20175;-69
2022/12/06 05:55:49;;;;;;;7.43;3.10;;;2.30;99.90;;;;;;5020397;28;20261;-69
2022/12/06 05:58:16;;;;;;;5.07;2.30;;;2.30;99.90;;;;;;5016927;28;20206;-68
2022/12/06 06:00:46;;;;;;;6.67;2.50;;;2.30;99.90;;;;;;5014937;28;20803;-69
2022/12/06 06:03:11;;;;;;;5.13;3.07;;;2.30;99.90;;;;;;5016861;28;20785;-69
2022/12/06 06:05:43;;;;;;;6.70;3.20;;;2.30;99.90;;;;;;5022144;28;20472;-69
2022/12/06 06:08:08;;;;;;;4.57;2.57;;;2.30;99.90;;;;;;5010667;28;20242;-69
2022/12/06 06:10:34;;;;;;;6.30;2.70;;;2.30;99.90;;;;;;5017800;28;20429;-67
2022/12/06 06:13:00;;;;;;;9.47;2.90;;;2.30;99.90;;;;;;5010033;28;20266;-67
2022/12/06 06:15:25;;;;;;;4.43;2.70;;;2.30;99.90;;;;;;5015667;28;20186;-67
2022/12/06 06:17:51;;;;;;;4.77;2.80;;;2.40;99.90;;;;;;5013279;28;20191;-67
2022/12/06 06:20:16;;;;;;;8.20;3.20;;;2.40;99.90;;;;;;5017746;28;20196;-67
2022/12/06 06:22:42;;;;;;;9.53;3.77;;;2.30;99.90;;;;;;5020180;28;20191;-68
2022/12/06 06:25:08;;;;;;;6.83;3.27;;;2.40;99.90;;;;;;5016700;28;20676;-68
2022/12/06 06:27:36;;;;;;;7.63;2.87;;;2.40;99.90;;;;;;5016618;28;20183;-70
2022/12/06 06:30:08;;;;;;;4.90;3.20;;;2.30;99.90;;;;;;5021268;28;20417;-69
2022/12/06 06:32:34;;;;;;;6.50;3.17;;;2.30;99.90;;;;;;5012812;28;20414;-69
2022/12/06 06:34:59;;;;;;;4.33;2.47;;;2.30;99.90;;;;;;5008535;28;20910;-69
2022/12/06 06:37:25;;;;;;;7.57;3.87;;;2.30;99.90;;;;;;5015650;28;20446;-69
2022/12/06 06:39:51;;;;;;;4.87;2.93;;;2.30;99.90;;;;;;5018224;28;20193;-67
2022/12/06 06:42:16;;;;;;;7.17;3.23;;;2.30;99.90;;;;;;5015880;28;20184;-67
2022/12/06 06:44:43;;;;;;;19.37;5.93;;;2.30;99.90;;;;;;5016735;28;20190;-67
2022/12/06 06:47:08;;;;;;;11.30;5.23;;;2.30;99.90;;;;;;5017883;28;20238;-68
2022/12/06 06:49:34;;;;;;;10.00;5.00;;;2.30;99.90;;;;;;5025238;28;20455;-68
2022/12/06 06:52:00;;;;;;;8.03;4.00;;;2.30;99.90;;;;;;5020494;28;20194;-68
2022/12/06 06:54:26;;;;;;;5.53;3.03;;;2.30;99.90;;;;;;5018598;28;20178;-68
2022/12/06 06:56:54;;;;;;;5.10;2.93;;;2.20;99.90;;;;;;5021114;28;20179;-67
2022/12/06 06:59:20;;;;;;;7.80;3.17;;;2.20;99.90;;;;;;5026743;28;20429;-67
2022/12/06 07:01:45;;;;;;;7.97;3.17;;;2.20;99.90;;;;;;5018218;28;20434;-67
2022/12/06 07:04:11;;;;;;;5.30;2.60;;;2.20;99.90;;;;;;5024634;28;20186;-67
2022/12/06 07:06:37;;;;;;;6.10;2.70;;;2.20;99.90;;;;;;5022290;28;20280;-68
2022/12/06 07:09:03;;;;;;;10.63;3.07;;;2.20;99.90;;;;;;5011749;28;20678;-68
2022/12/06 07:11:28;;;;;;;5.30;3.40;;;2.30;99.90;;;;;;5014016;28;20179;-68
2022/12/06 07:13:54;;;;;;;7.93;3.73;;;2.30;99.90;;;;;;5015748;28;20425;-67
2022/12/06 07:16:19;;;;;;;4.83;2.80;;;2.30;99.90;;;;;;5013584;28;20267;-68
2022/12/06 07:18:46;;;;;;;7.53;2.63;;;2.30;99.90;;;;;;5019198;28;20562;-68
2022/12/06 07:21:14;;;;;;;4.03;2.43;;;2.30;99.90;;;;;;5019299;28;20585;-68
2022/12/06 07:23:39;;;;;;;6.87;3.53;;;2.30;99.90;;;;;;5024743;28;20421;-68
2022/12/06 07:26:13;;;;;;;6.13;3.03;;;2.30;99.90;;;;;;5014883;28;20465;-68
2022/12/06 07:28:41;;;;;;;4.70;2.57;;;2.30;99.90;;;;;;5017944;28;20179;-68
2022/12/06 07:31:10;;;;;;;4.10;2.53;;;2.30;99.90;;;;;;5022970;28;20938;-68
2022/12/06 07:33:37;;;;;;;3.73;2.30;;;2.30;99.90;;;;;;5024818;28;20425;-68
2022/12/06 07:36:03;;;;;;;7.03;2.77;;;2.30;99.90;;;;;;5012760;28;20438;-68
2022/12/06 07:38:29;;;;;;;6.37;3.37;;;2.30;99.90;;;;;;5022465;28;20806;-68
2022/12/06 07:44:59;;;;;;;7.20;2.97;;;2.30;99.90;;;;;;5020909;28;20468;-68
2022/12/06 07:46:32;;;;;;;5.10;2.50;;;2.20;99.90;;;;;;5021286;28;20476;-68
2022/12/06 07:48:58;;;;;;;4.60;3.30;;;2.30;99.90;;;;;;5015821;28;20426;-68
2022/12/06 07:51:24;;;;;;;4.50;2.63;;;2.30;99.90;;;;;;5021330;28;20182;-68
2022/12/06 07:53:49;;;;;;;5.33;2.80;;;2.30;99.90;;;;;;5022518;28;20265;-68
2022/12/06 07:56:15;;;;;;;7.03;3.67;;;2.30;99.90;;;;;;5021690;28;20209;-68
2022/12/06 07:58:40;;;;;;;13.37;4.10;;;2.30;99.90;;;;;;5018598;28;20624;-69
2022/12/06 08:01:06;;;;;;;6.17;2.87;;;2.40;99.90;;;;;;5011735;28;20222;-68
2022/12/06 08:03:32;;;;;;;4.43;2.63;;;2.40;99.90;;;;;;5024197;28;20188;-68
2022/12/06 08:05:57;;;;;;;6.20;2.40;;;2.40;99.90;;;;;;5016116;28;20207;-68
2022/12/06 08:08:23;;;;;;;4.10;2.87;;;2.40;99.90;;;;;;5025240;28;20178;-68
2022/12/06 08:10:49;;;;;;;5.17;3.03;;;2.40;99.90;;;;;;5010670;28;20179;-68
2022/12/06 08:13:14;;;;;;;8.40;3.17;;;2.40;99.90;;;;;;5013702;28;20727;-68
2022/12/06 08:15:40;;;;;;;5.03;3.13;;;2.40;99.90;;;;;;5019104;28;20194;-68
2022/12/06 08:18:06;;;;;;;5.30;2.73;;;2.40;99.90;;;;;;5012716;28;20203;-68
2022/12/06 08:20:31;;;;;;;7.40;2.20;;;2.40;99.90;;;;;;5021147;28;20233;-68
2022/12/06 08:22:57;;;;;;;5.40;2.60;;;2.40;99.90;;;;;;5012268;28;20606;-65
2022/12/06 08:25:22;;;;;;;4.30;2.70;;;2.50;99.90;;;;;;5011367;28;20285;-68
2022/12/06 08:27:48;;;;;;;4.10;2.53;;;2.50;99.90;;;;;;5010665;28;20214;-68
2022/12/06 08:30:14;;;;;;;5.40;3.00;;;2.50;99.90;;;;;;5008783;28;20563;-68
2022/12/06 08:32:39;;;;;;;7.63;3.40;;;2.50;99.90;;;;;;5010931;28;20218;-70
2022/12/06 08:35:05;;;;;;;7.40;3.60;;;2.60;99.90;;;;;;5015088;28;20973;-69
2022/12/06 08:37:33;;;;;;;6.90;3.30;;;2.60;99.90;;;;;;5017181;28;20203;-69
2022/12/06 08:39:59;;;;;;;7.03;2.90;;;2.60;99.90;;;;;;5009364;28;20533;-69
2022/12/06 08:42:24;;;;;;;8.80;3.40;;;2.60;99.90;;;;;;5010239;28;20533;-69
2022/12/06 08:44:53;;;;;;;6.93;3.37;;;2.60;99.90;;;;;;5011892;28;20274;-69
2022/12/06 08:47:18;;;;;;;5.17;2.80;;;2.50;99.90;;;;;;5011578;28;20256;-69
2022/12/06 08:49:44;;;;;;;5.53;3.30;;;2.50;99.90;;;;;;5008144;28;20843;-69
2022/12/06 08:52:10;;;;;;;4.50;2.80;;;2.50;99.90;;;;;;5009060;28;20583;-69
2022/12/06 08:54:36;;;;;;;6.40;3.23;;;2.50;99.90;;;;;;5011707;28;20190;-69
2022/12/06 08:57:03;;;;;;;5.67;2.93;;;2.50;99.90;;;;;;5012010;28;20191;-69
2022/12/06 08:59:28;;;;;;;4.47;2.70;;;2.50;99.90;;;;;;5007247;28;20787;-70
2022/12/06 09:01:54;;;;;;;7.00;2.23;;;2.50;99.90;;;;;;5007148;28;20454;-69
2022/12/06 09:04:19;;;;;;;8.00;2.90;;;2.60;99.90;;;;;;5006128;28;20198;-68
2022/12/06 09:06:46;;;;;;;10.73;3.03;;;2.60;99.90;;;;;;5009290;28;20659;-68
2022/12/06 09:09:13;;;;;;;6.67;3.07;;;2.60;99.90;;;;;;5007463;28;20651;-69
2022/12/06 09:11:39;;;;;;;6.60;2.57;;;2.70;99.90;;;;;;5011111;28;20509;-69
2022/12/06 09:14:07;;;;;;;5.83;3.57;;;2.70;99.90;;;;;;5011285;28;20535;-69
2022/12/06 09:16:33;;;;;;;5.97;3.27;;;2.80;99.90;;;;;;5010167;28;20497;-69
2022/12/06 09:18:59;;;;;;;4.90;2.40;;;2.80;99.90;;;;;;5010122;28;20841;-69
2022/12/06 09:21:30;;;;;;;7.10;3.17;;;2.80;99.90;;;;;;5013967;28;20189;-69
2022/12/06 09:23:57;;;;;;;9.70;4.23;;;2.80;99.90;;;;;;4990067;28;20234;-69
2022/12/06 09:26:23;;;;;;;5.67;2.87;;;2.90;99.90;;;;;;5009909;28;20468;-70
2022/12/06 09:28:50;;;;;;;9.90;4.70;;;3.00;99.90;;;;;;5010509;28;20449;-69
2022/12/06 09:31:17;;;;;;;5.37;3.17;;;3.00;99.90;;;;;;5010376;28;20441;-69
2022/12/06 09:33:43;;;;;;;4.30;2.70;;;3.10;99.90;;;;;;5011230;28;20425;-69
2022/12/06 09:36:24;;;;;;;9.40;3.80;;;3.10;99.90;;;;;;5011207;28;20508;-69
2022/12/06 09:38:54;;;;;;;6.73;2.83;;;3.10;99.90;;;;;;5011554;28;20198;-69
2022/12/06 09:41:38;;;;;;;7.60;2.33;;;3.10;99.90;;;;;;5010037;28;20438;-70
2022/12/06 09:44:23;;;;;;;7.20;4.03;;;3.10;99.90;;;;;;5010350;28;20454;-70
2022/12/06 09:46:54;;;;;;;7.20;3.70;;;3.10;99.90;;;;;;5007479;28;20830;-69
2022/12/06 09:49:30;;;;;;;4.87;3.00;;;3.20;99.90;;;;;;5011225;28;20492;-69
2022/12/06 09:52:06;;;;;;;5.77;3.33;;;3.20;99.90;;;;;;5009235;28;20796;-70
2022/12/06 09:55:13;;;;;;;7.10;3.17;;;3.20;99.90;;;;;;5009866;28;20918;-69
2022/12/06 09:58:13;;;;;;;4.53;2.50;;;3.30;99.90;;;;;;5007254;28;21280;-69
2022/12/06 10:00:50;;;;;;;6.30;2.23;;;3.30;99.90;;;;;;5009003;28;20435;-69
2022/12/06 10:03:33;;;;;;;5.97;2.77;;;3.40;99.90;;;;;;5009573;28;20441;-69
2022/12/06 10:06:00;;;;;;;6.97;3.00;;;3.30;99.90;;;;;;5023212;28;20476;-69
2022/12/06 10:08:38;;;;;;;5.00;2.80;;;3.40;99.90;;;;;;5011475;28;20501;-69
2022/12/06 10:11:12;;;;;;;6.50;3.50;;;3.40;99.90;;;;;;5011452;28;20961;-70
2022/12/06 10:13:54;;;;;;;5.53;3.33;;;3.40;99.90;;;;;;5009040;28;20432;-70
2022/12/06 10:16:43;;;;;;;7.90;3.40;;;3.50;99.90;;;;;;5013522;28;20435;-69
2022/12/06 10:19:26;;;;;;;9.40;3.60;;;3.60;99.90;;;;;;5010593;28;20437;-69
2022/12/06 10:21:52;;;;;;;6.50;2.93;;;3.60;99.90;;;;;;5014171;28;20418;-70
2022/12/06 10:24:25;;;;;;;8.77;3.60;;;3.60;99.90;;;;;;5014799;28;20441;-69
2022/12/06 10:26:53;;;;;;;9.50;3.60;;;3.50;99.90;;;;;;5014724;28;20611;-69
2022/12/06 10:29:18;;;;;;;5.80;2.60;;;3.50;99.90;;;;;;5014451;28;20588;-69
2022/12/06 10:31:57;;;;;;;3.70;1.90;;;3.60;99.90;;;;;;5013718;28;20541;-69
2022/12/06 10:34:55;;;;;;;4.57;2.40;;;3.60;99.90;;;;;;5014789;28;20274;-69
2022/12/06 10:37:29;;;;;;;5.53;2.83;;;3.60;99.90;;;;;;5011461;28;20450;-69
2022/12/06 10:40:12;;;;;;;6.07;2.77;;;3.70;99.90;;;;;;5010606;28;20447;-69
2022/12/06 10:42:46;;;;;;;7.90;3.80;;;3.80;99.90;;;;;;5010884;28;20445;-69
2022/12/06 10:48:26;;;;;;;5.93;3.37;;;3.80;99.90;;;;;;5011153;28;20940;-69
2022/12/06 10:51:00;;;;;;;5.37;2.93;;;3.80;99.90;;;;;;5013512;28;20456;-69
2022/12/06 10:53:30;;;;;;;5.40;3.17;;;3.90;99.90;;;;;;5025111;28;20420;-69
2022/12/06 10:56:19;;;;;;;5.63;3.00;;;3.90;99.90;;;;;;5013606;28;20437;-70
2022/12/06 10:58:55;;;;;;;8.03;3.90;;;3.90;99.90;;;;;;5009633;28;20418;-70
2022/12/06 11:01:27;;;;;;;5.97;3.20;;;3.80;99.90;;;;;;5024183;28;20429;-70
2022/12/06 11:03:58;;;;;;;6.63;3.70;;;3.70;99.90;;;;;;5012871;28;20934;-69
2022/12/06 11:06:33;;;;;;;9.50;3.60;;;3.80;99.90;;;;;;5014695;28;20938;-70
2022/12/06 11:09:24;;;;;;;6.23;3.40;;;3.80;99.90;;;;;;5025917;28;20405;-69
2022/12/06 11:11:50;;;;;;;6.60;3.80;;;3.80;99.90;;;;;;5008659;28;20517;-69
2022/12/06 11:14:34;;;;;;;3.80;2.70;;;3.90;99.90;;;;;;5024067;28;20922;-70
2022/12/06 11:17:06;;;;;;;6.03;3.13;;;4.00;99.90;;;;;;5016805;28;20452;-70
2022/12/06 11:19:38;;;;;;;10.63;4.40;;;4.00;99.90;;;;;;5011520;28;20435;-70
2022/12/06 11:22:24;;;;;;;9.90;4.70;;;4.10;99.90;;;;;;5011132;28;21002;-69
2022/12/06 11:24:58;;;;;;;7.60;3.17;;;4.10;99.90;;;;;;5008766;28;20496;-69
2022/12/06 11:27:32;;;;;;;6.93;2.70;;;4.00;99.90;;;;;;5013530;28;20466;-69
2022/12/06 11:29:58;;;;;;;6.67;3.30;;;4.10;99.90;;;;;;5013522;28;20422;-69
2022/12/06 11:32:24;;;;;;;6.10;3.33;;;4.10;99.90;;;;;;5012691;28;20792;-69
2022/12/06 11:34:56;;;;;;;6.70;3.10;;;4.10;99.90;;;;;;5013675;28;20418;-69
2022/12/06 11:37:24;;;;;;;11.70;6.77;;;4.10;99.90;;;;;;5013447;28;20207;-69
2022/12/06 11:39:54;;;;;;;7.73;3.70;;;4.00;99.90;;;;;;5007846;28;20881;-69
2022/12/06 11:42:25;;;;;;;7.07;3.93;;;4.00;99.90;;;;;;5011832;28;20442;-70
2022/12/06 11:44:56;;;;;;;11.57;4.87;;;4.00;99.90;;;;;;5012900;28;20764;-69
2022/12/06 11:47:23;;;;;;;8.10;3.50;;;4.00;99.90;;;;;;5013310;28;20525;-69
2022/12/06 11:49:52;;;;;;;10.27;4.40;;;4.00;99.90;;;;;;5013439;28;20418;-69
2022/12/06 11:52:29;;;;;;;12.57;4.30;;;3.90;99.90;;;;;;5012781;28;20452;-70
2022/12/06 11:55:02;;;;;;;8.30;4.57;;;3.90;99.90;;;;;;5003774;28;20479;-70
2022/12/06 11:57:37;;;;;;;5.87;3.43;;;3.90;99.90;;;;;;5008348;28;20513;-70
2022/12/06 12:00:19;;;;;;;9.60;4.03;;;3.90;99.90;;;;;;5012539;28;20429;-69
2022/12/06 12:02:48;;;;;;;4.83;2.80;;;3.90;99.90;;;;;;5013000;28;21111;-69
2022/12/06 12:05:16;;;;;;;3.67;2.90;;;3.90;99.90;;;;;;5013046;28;20434;-69
2022/12/06 12:07:47;;;;;;;8.23;3.83;;;3.90;99.90;;;;;;5013417;28;20793;-69
2022/12/06 12:10:38;;;;;;;6.67;3.80;;;3.80;99.90;;;;;;5012842;28;20422;-69
2022/12/06 12:15:56;;;;;;;8.87;4.67;;;3.80;99.90;;;;;;5012306;28;20405;-69
2022/12/06 12:18:30;;;;;;;8.50;4.43;;;3.80;99.90;;;;;;4999809;28;20895;-69
2022/12/06 12:20:58;;;;;;;7.20;4.00;;;3.80;99.90;;;;;;5023213;28;20428;-69
2022/12/06 12:23:31;;;;;;;9.10;4.73;;;3.80;99.90;;;;;;5012156;28;20429;-70
2022/12/06 12:26:11;;;;;;;7.20;4.93;;;3.90;99.90;;;;;;5012265;28;20473;-69
2022/12/06 12:28:38;;;;;;;8.70;4.40;;;3.90;99.90;;;;;;5011296;28;20428;-69
2022/12/06 12:31:20;;;;;;;8.37;4.80;;;3.90;99.90;;;;;;5008682;28;20442;-69
2022/12/06 12:33:46;;;;;;;11.43;5.03;;;3.90;99.90;;;;;;5007873;28;20460;-69
2022/12/06 12:36:19;;;;;;;19.20;5.23;;;3.90;99.90;;;;;;5010313;28;20421;-70
2022/12/06 12:38:59;;;;;;;12.33;5.50;;;3.80;99.90;;;;;;5011923;28;20910;-70
2022/12/06 12:41:40;;;;;;;8.53;4.60;;;3.80;99.90;;;;;;5008872;28;20433;-69
2022/12/06 12:44:18;;;;;;;11.93;5.90;;;3.80;99.90;;;;;;5009414;28;20799;-70
2022/12/06 12:46:47;;;;;;;8.17;4.30;;;3.80;99.90;;;;;;5005327;28;20564;-70
2022/12/06 12:49:27;;;;;;;11.30;5.63;;;3.80;99.90;;;;;;5007928;28;20442;-69
2022/12/06 12:51:53;;;;;;;16.77;6.03;;;3.80;99.90;;;;;;5005795;28;20902;-70
2022/12/06 12:54:35;;;;;;;9.80;5.97;;;3.80;99.90;;;;;;5017629;28;20995;-69
2022/12/06 12:57:06;;;;;;;12.47;5.77;;;3.80;99.90;;;;;;5008996;28;20445;-69
2022/12/06 12:59:38;;;;;;;10.30;6.17;;;3.80;99.90;;;;;;5007603;28;20450;-69
2022/12/06 13:02:21;;;;;;;17.50;7.47;;;3.80;99.90;;;;;;5007277;28;20426;-69
2022/12/06 13:05:02;;;;;;;10.37;5.77;;;3.80;99.90;;;;;;5007854;28;20450;-69
2022/12/06 13:07:39;;;;;;;12.67;5.30;;;3.80;99.90;;;;;;5008735;28;20461;-69
2022/12/06 13:10:16;;;;;;;12.60;5.37;;;3.80;99.90;;;;;;5008315;28;20437;-69
2022/12/06 13:13:02;;;;;;;13.00;6.20;;;3.80;99.90;;;;;;5007356;28;20458;-70
2022/12/06 13:15:31;;;;;;;13.20;6.63;;;3.80;99.90;;;;;;5000808;28;20418;-69
2022/12/06 13:18:03;;;;;;;9.93;5.20;;;3.80;99.90;;;;;;5000488;28;20499;-69
2022/12/06 13:20:31;;;;;;;13.67;5.47;;;3.80;99.90;;;;;;5004797;28;20438;-69
2022/12/06 13:23:14;;;;;;;14.90;6.10;;;3.70;99.90;;;;;;5002380;28;20434;-69
2022/12/06 13:25:46;;;;;;;13.90;5.60;;;3.80;99.90;;;;;;5005363;28;20472;-69
2022/12/06 13:28:19;;;;;;;9.00;4.80;;;3.80;99.90;;;;;;5007700;28;20472;-69
2022/12/06 13:30:45;;;;;;;6.43;3.67;;;3.70;99.90;;;;;;5008327;28;20424;-69
2022/12/06 13:33:19;;;;;;;8.53;3.93;;;3.80;99.90;;;;;;5006289;28;20568;-69
2022/12/06 13:35:56;;;;;;;7.17;3.30;;;3.70;99.90;;;;;;5008016;28;20795;-69
2022/12/06 13:38:34;;;;;;;8.60;3.60;;;3.70;99.90;;;;;;5009768;28;20459;-69